createdAt,value
2019-05-11T00:00:35.921Z,83.69
2019-05-11T00:03:05.876Z,84.04
2019-05-11T00:05:35.704Z,84.19
2019-05-11T00:08:08.320Z,84.62
2019-05-11T00:10:38.044Z,84.99
2019-05-11T00:13:07.804Z,85.00
2019-05-11T00:15:37.622Z,85.17
2019-05-11T00:18:07.590Z,85.46
2019-05-11T00:20:37.447Z,85.44
2019-05-11T00:23:07.207Z,85.61
2019-05-11T00:25:36.962Z,85.65
2019-05-11T00:28:06.933Z,85.09
2019-05-11T00:30:36.662Z,84.94
2019-05-11T00:33:06.515Z,85.07
2019-05-11T00:35:36.262Z,84.66
2019-05-11T00:38:06.044Z,84.71
2019-05-11T00:40:35.786Z,84.49
2019-05-11T00:43:05.984Z,84.83
2019-05-11T00:45:35.685Z,84.72
2019-05-11T00:48:05.586Z,84.40
2019-05-11T00:50:39.535Z,83.93
2019-05-11T00:53:06.793Z,83.90
2019-05-11T00:55:36.639Z,83.40
2019-05-11T00:58:06.558Z,84.17
2019-05-11T01:00:36.575Z,83.19
2019-05-11T01:03:06.454Z,83.18
2019-05-11T01:05:36.245Z,83.73
2019-05-11T01:08:06.229Z,84.32
2019-05-11T01:10:42.084Z,83.43
2019-05-11T01:13:07.543Z,82.54
2019-05-11T01:15:37.337Z,83.06
2019-05-11T01:18:06.998Z,83.23
2019-05-11T01:20:36.747Z,83.24
2019-05-11T01:23:06.562Z,82.74
2019-05-11T01:25:36.349Z,83.08
2019-05-11T01:28:06.077Z,82.81
2019-05-11T01:30:38.683Z,82.83
2019-05-11T01:33:07.392Z,83.05
2019-05-11T01:35:37.105Z,83.03
2019-05-11T01:38:06.899Z,82.34
2019-05-11T01:40:36.555Z,82.39
2019-05-11T01:43:06.358Z,81.63
2019-05-11T01:45:36.822Z,81.85
2019-05-11T01:48:06.698Z,81.29
2019-05-11T01:50:36.584Z,81.44
2019-05-11T01:53:06.494Z,81.25
2019-05-11T01:55:36.298Z,80.47
2019-05-11T01:58:06.121Z,80.03
2019-05-11T02:00:35.885Z,80.71
2019-05-11T02:03:05.672Z,80.78
2019-05-11T02:05:35.593Z,81.04
2019-05-11T02:08:05.661Z,81.09
2019-05-11T02:10:35.431Z,81.84
2019-05-11T02:13:05.196Z,82.22
2019-05-11T02:15:34.959Z,82.81
2019-05-11T02:18:04.796Z,83.26
2019-05-11T02:20:34.512Z,83.59
2019-05-11T02:23:04.329Z,83.80
2019-05-11T02:25:34.130Z,83.69
2019-05-11T02:28:03.950Z,84.02
2019-05-11T02:30:33.878Z,83.58
2019-05-11T02:33:03.743Z,84.29
2019-05-11T02:35:33.436Z,84.28
2019-05-11T02:38:03.182Z,84.46
2019-05-11T02:40:33.138Z,83.80
2019-05-11T02:43:03.010Z,82.80
2019-05-11T02:45:42.212Z,83.06
2019-05-11T02:48:12.390Z,83.35
2019-05-11T02:50:42.726Z,83.80
2019-05-11T02:53:12.508Z,84.08
2019-05-11T02:55:42.359Z,84.13
2019-05-11T02:58:12.292Z,84.05
2019-05-11T03:00:44.675Z,84.03
2019-05-11T03:03:14.612Z,84.72
2019-05-11T03:05:44.645Z,84.53
2019-05-11T03:08:14.614Z,84.47
2019-05-11T03:10:44.405Z,84.85
2019-05-11T03:13:14.264Z,84.89
2019-05-11T03:15:44.091Z,83.51
2019-05-11T03:18:13.935Z,83.17
2019-05-11T03:20:43.810Z,83.61
2019-05-11T03:23:13.526Z,84.08
2019-05-11T03:25:43.377Z,84.10
2019-05-11T03:28:13.131Z,84.34
2019-05-11T03:30:42.924Z,83.80
2019-05-11T03:33:12.721Z,83.63
2019-05-11T03:35:42.510Z,83.14
2019-05-11T03:38:12.192Z,83.24
2019-05-11T03:40:41.905Z,82.96
2019-05-11T03:43:11.804Z,83.32
2019-05-11T03:45:41.725Z,83.40
2019-05-11T03:48:11.467Z,83.57
2019-05-11T03:50:41.207Z,83.02
2019-05-11T03:53:11.193Z,83.36
2019-05-11T03:55:40.943Z,83.70
2019-05-11T03:58:10.633Z,83.71
2019-05-11T04:00:40.333Z,84.09
2019-05-11T04:03:10.020Z,84.04
2019-05-11T04:05:39.713Z,84.41
2019-05-11T04:08:09.653Z,84.10
2019-05-11T04:10:39.450Z,83.62
2019-05-11T04:13:09.189Z,83.20
2019-05-11T04:15:38.862Z,83.41
2019-05-11T04:18:08.727Z,83.36
2019-05-11T04:20:38.434Z,82.61
2019-05-11T04:23:08.216Z,82.93
2019-05-11T04:25:37.910Z,82.39
2019-05-11T04:28:07.695Z,82.64
2019-05-11T04:30:37.338Z,82.91
2019-05-11T04:33:07.110Z,82.41
2019-05-11T04:35:36.947Z,82.25
2019-05-11T04:38:06.703Z,82.25
2019-05-11T04:40:36.468Z,82.78
2019-05-11T04:43:06.252Z,83.44
2019-05-11T04:45:36.048Z,83.78
2019-05-11T04:48:06.234Z,83.97
2019-05-11T04:50:35.997Z,83.81
2019-05-11T04:53:05.813Z,84.24
2019-05-11T04:55:35.558Z,85.36
2019-05-11T04:58:05.452Z,85.88
2019-05-11T05:00:35.251Z,85.61
2019-05-11T05:03:05.034Z,85.50
2019-05-11T05:05:34.787Z,85.49
2019-05-11T05:08:09.746Z,85.41
2019-05-11T05:10:36.040Z,85.63
2019-05-11T05:13:10.595Z,85.76
2019-05-11T05:15:37.218Z,85.90
2019-05-11T05:18:06.974Z,85.87
2019-05-11T05:20:36.674Z,85.99
2019-05-11T05:23:06.652Z,85.81
2019-05-11T05:25:36.503Z,86.16
2019-05-11T05:28:06.434Z,86.24
2019-05-11T05:30:36.220Z,86.30
2019-05-11T05:33:06.215Z,86.52
2019-05-11T05:35:36.120Z,86.35
2019-05-11T05:38:05.976Z,86.53
2019-05-11T05:40:35.671Z,86.46
2019-05-11T05:43:05.633Z,86.44
2019-05-11T05:45:35.453Z,86.21
2019-05-11T05:48:05.411Z,86.19
2019-05-11T05:50:35.237Z,86.02
2019-05-11T05:53:05.238Z,86.24
2019-05-11T05:55:35.004Z,86.19
2019-05-11T05:58:04.842Z,86.01
2019-05-11T06:00:34.661Z,86.21
2019-05-11T06:03:04.451Z,86.56
2019-05-11T06:05:34.644Z,86.08
2019-05-11T06:08:04.483Z,85.69
2019-05-11T06:10:34.375Z,85.48
2019-05-11T06:13:04.070Z,84.77
2019-05-11T06:15:33.889Z,84.64
2019-05-11T06:18:03.603Z,83.72
2019-05-11T06:20:33.364Z,84.21
2019-05-11T06:23:03.252Z,83.85
2019-05-11T06:25:33.048Z,83.52
2019-05-11T06:28:02.903Z,83.88
2019-05-11T06:30:32.578Z,84.08
2019-05-11T06:33:02.333Z,83.82
2019-05-11T06:35:32.066Z,84.05
2019-05-11T06:38:01.902Z,83.64
2019-05-11T06:40:31.670Z,83.56
2019-05-11T06:43:01.372Z,83.67
2019-05-11T06:45:31.245Z,83.23
2019-05-11T06:48:00.994Z,83.40
2019-05-11T06:50:30.628Z,82.95
2019-05-11T06:53:00.410Z,82.44
2019-05-11T06:55:30.205Z,81.63
2019-05-11T06:57:59.875Z,81.33
2019-05-11T07:00:30.265Z,81.22
2019-05-11T07:03:00.075Z,81.25
2019-05-11T07:05:29.797Z,80.96
2019-05-11T07:07:59.502Z,81.14
2019-05-11T07:10:29.289Z,81.58
2019-05-11T07:12:59.174Z,81.09
2019-05-11T07:15:29.156Z,80.71
2019-05-11T07:17:58.985Z,79.99
2019-05-11T07:20:28.773Z,80.35
2019-05-11T07:22:58.494Z,80.28
2019-05-11T07:25:28.298Z,80.04
2019-05-11T07:27:58.176Z,80.55
2019-05-11T07:30:27.878Z,80.57
2019-05-11T07:32:58.152Z,79.81
2019-05-11T07:35:28.975Z,79.87
2019-05-11T07:37:58.743Z,80.22
2019-05-11T07:40:28.664Z,80.07
2019-05-11T07:42:59.074Z,79.31
2019-05-11T07:45:28.975Z,78.42
2019-05-11T07:47:59.130Z,78.37
2019-05-11T07:50:28.966Z,78.25
2019-05-11T07:52:59.052Z,79.27
2019-05-11T07:55:29.259Z,79.44
2019-05-11T07:57:59.031Z,79.61
2019-05-11T08:00:29.121Z,78.96
2019-05-11T08:02:58.815Z,78.39
2019-05-11T08:05:28.595Z,77.96
2019-05-11T08:07:59.573Z,77.84
2019-05-11T08:10:29.655Z,77.06
2019-05-11T08:12:59.352Z,77.17
2019-05-11T08:15:29.106Z,77.44
2019-05-11T08:17:58.935Z,77.11
2019-05-11T08:20:28.590Z,77.07
2019-05-11T08:22:58.808Z,76.89
2019-05-11T08:25:28.882Z,76.96
2019-05-11T08:27:59.008Z,77.56
2019-05-11T08:30:29.020Z,77.61
2019-05-11T08:32:58.707Z,77.45
2019-05-11T08:35:31.134Z,76.79
2019-05-11T08:37:59.850Z,75.98
2019-05-11T08:40:29.601Z,75.41
2019-05-11T08:42:59.360Z,76.79
2019-05-11T08:45:29.230Z,77.12
2019-05-11T08:47:58.944Z,75.71
2019-05-11T08:50:28.738Z,75.01
2019-05-11T08:52:58.597Z,75.05
2019-05-11T08:55:28.998Z,73.97
2019-05-11T08:57:59.403Z,73.03
2019-05-11T09:00:29.130Z,73.33
2019-05-11T09:02:59.060Z,73.43
2019-05-11T09:05:29.045Z,72.36
2019-05-11T09:07:58.873Z,72.46
2019-05-11T09:10:28.611Z,71.21
2019-05-11T09:12:59.073Z,71.33
2019-05-11T09:15:36.311Z,71.19
2019-05-11T09:18:00.985Z,71.84
2019-05-11T09:20:30.731Z,71.53
2019-05-11T09:23:00.437Z,70.73
2019-05-11T09:25:30.116Z,70.55
2019-05-11T09:27:59.911Z,69.83
2019-05-11T09:30:29.834Z,70.59
2019-05-11T09:32:59.795Z,70.95
2019-05-11T09:35:29.467Z,68.84
2019-05-11T09:37:59.273Z,68.59
2019-05-11T09:40:29.031Z,69.09
2019-05-11T09:42:59.120Z,69.30
2019-05-11T09:45:28.942Z,70.44
2019-05-11T09:47:58.728Z,70.52
2019-05-11T09:50:28.604Z,70.03
2019-05-11T09:52:58.371Z,69.48
2019-05-11T09:55:28.469Z,68.99
2019-05-11T09:57:58.245Z,68.50
2019-05-11T10:00:29.645Z,68.81
2019-05-11T10:02:59.737Z,69.39
2019-05-11T10:05:29.558Z,69.29
2019-05-11T10:07:59.798Z,69.61
2019-05-11T10:10:29.550Z,69.22
2019-05-11T10:12:59.329Z,68.11
2019-05-11T10:15:29.105Z,66.42
2019-05-11T10:17:59.101Z,67.79
2019-05-11T10:20:29.096Z,66.85
2019-05-11T10:22:58.858Z,66.98
2019-05-11T10:25:28.935Z,66.46
2019-05-11T10:27:58.800Z,66.38
2019-05-11T10:30:28.767Z,66.46
2019-05-11T10:32:58.557Z,67.09
2019-05-11T10:35:29.008Z,65.72
2019-05-11T10:37:58.892Z,65.80
2019-05-11T10:40:28.639Z,66.02
2019-05-11T10:42:59.121Z,65.70
2019-05-11T10:45:29.209Z,64.72
2019-05-11T10:48:01.079Z,64.55
2019-05-11T10:50:30.580Z,64.53
2019-05-11T10:53:00.641Z,63.82
2019-05-11T10:55:30.559Z,62.77
2019-05-11T10:58:00.414Z,61.86
2019-05-11T11:00:30.496Z,60.57
2019-05-11T11:03:00.265Z,60.26
2019-05-11T11:05:30.217Z,61.31
2019-05-11T11:07:59.874Z,60.55
2019-05-11T11:10:29.679Z,60.86
2019-05-11T11:12:59.602Z,60.83
2019-05-11T11:15:29.577Z,60.43
2019-05-11T11:17:59.229Z,59.73
2019-05-11T11:20:28.997Z,59.35
2019-05-11T11:22:58.856Z,59.31
2019-05-11T11:25:28.658Z,58.16
2019-05-11T11:27:58.682Z,58.56
2019-05-11T11:30:28.776Z,59.39
2019-05-11T11:32:58.958Z,59.09
2019-05-11T11:35:28.719Z,59.31
2019-05-11T11:37:59.371Z,58.51
2019-05-11T11:40:29.177Z,58.00
2019-05-11T11:42:59.253Z,57.98
2019-05-11T11:45:29.083Z,57.66
2019-05-11T11:47:59.138Z,57.09
2019-05-11T11:50:29.061Z,57.41
2019-05-11T11:52:59.561Z,57.49
2019-05-11T11:55:29.363Z,57.12
2019-05-11T11:57:59.116Z,56.01
2019-05-11T12:00:29.148Z,55.52
2019-05-11T12:02:58.857Z,55.87
2019-05-11T12:05:28.916Z,58.26
2019-05-11T12:07:58.693Z,59.17
2019-05-11T12:10:28.891Z,60.00
2019-05-11T12:13:00.061Z,60.31
2019-05-11T12:15:29.995Z,59.46
2019-05-11T12:17:59.869Z,59.01
2019-05-11T12:20:29.745Z,59.47
2019-05-11T12:22:59.702Z,59.25
2019-05-11T12:25:29.860Z,58.48
2019-05-11T12:27:59.958Z,58.03
2019-05-11T12:30:30.477Z,56.34
2019-05-11T12:33:00.173Z,56.71
2019-05-11T12:35:30.119Z,57.51
2019-05-11T12:38:00.349Z,57.16
2019-05-11T12:40:31.997Z,57.88
2019-05-11T12:43:01.915Z,57.00
2019-05-11T12:45:31.716Z,56.87
2019-05-11T12:48:02.102Z,56.53
2019-05-11T12:50:31.873Z,57.30
2019-05-11T12:53:01.837Z,57.74
2019-05-11T12:55:31.662Z,57.85
2019-05-11T12:58:04.528Z,57.43
2019-05-11T13:00:39.386Z,57.62
2019-05-11T13:03:09.171Z,56.89
2019-05-11T13:05:39.169Z,54.82
2019-05-11T13:08:09.431Z,54.84
2019-05-11T13:10:39.216Z,54.94
2019-05-11T13:13:09.094Z,55.99
2019-05-11T13:15:39.014Z,56.11
2019-05-11T13:18:08.800Z,56.60
2019-05-11T13:20:38.666Z,56.70
2019-05-11T13:23:08.309Z,53.76
2019-05-11T13:25:38.805Z,53.23
2019-05-11T13:28:09.336Z,53.39
2019-05-11T13:30:39.045Z,54.06
2019-05-11T13:33:08.821Z,54.56
2019-05-11T13:35:38.486Z,54.03
2019-05-11T13:38:08.813Z,53.52
2019-05-11T13:40:38.705Z,55.10
2019-05-11T13:43:08.565Z,55.10
2019-05-11T13:45:38.873Z,55.15
2019-05-11T13:48:08.840Z,54.89
2019-05-11T13:50:38.838Z,54.62
2019-05-11T13:53:08.669Z,54.76
2019-05-11T13:55:38.936Z,54.94
2019-05-11T13:58:08.915Z,55.44
2019-05-11T14:00:38.756Z,54.91
2019-05-11T14:03:09.147Z,54.70
2019-05-11T14:05:38.932Z,53.55
2019-05-11T14:08:08.616Z,53.33
2019-05-11T14:10:43.317Z,53.99
2019-05-11T14:13:13.064Z,52.93
2019-05-11T14:15:42.772Z,53.57
2019-05-11T14:18:12.447Z,52.50
2019-05-11T14:20:42.130Z,52.53
2019-05-11T14:23:11.994Z,52.59
2019-05-11T14:25:42.004Z,52.64
2019-05-11T14:28:12.418Z,51.94
2019-05-11T14:30:42.493Z,51.03
2019-05-11T14:33:12.340Z,50.26
2019-05-11T14:35:42.085Z,49.84
2019-05-11T14:38:11.852Z,50.80
2019-05-11T14:40:41.639Z,52.64
2019-05-11T14:43:11.408Z,56.00
2019-05-11T14:45:41.147Z,57.35
2019-05-11T14:48:23.082Z,57.86
2019-05-11T14:50:42.307Z,57.08
2019-05-11T14:53:12.049Z,57.78
2019-05-11T14:55:41.764Z,53.23
2019-05-11T14:58:11.402Z,51.92
2019-05-11T15:00:41.114Z,49.26
2019-05-11T15:03:10.857Z,47.82
2019-05-11T15:05:41.586Z,45.80
2019-05-11T15:08:11.503Z,43.71
2019-05-11T15:10:41.275Z,45.27
2019-05-11T15:13:11.006Z,45.84
2019-05-11T15:15:41.039Z,45.46
2019-05-11T15:18:12.614Z,46.01
2019-05-11T15:20:42.416Z,46.16
2019-05-11T15:23:12.196Z,46.50
2019-05-11T15:25:41.914Z,46.56
2019-05-11T15:28:13.297Z,46.75
2019-05-11T15:30:43.103Z,46.51
2019-05-11T15:33:13.047Z,46.94
2019-05-11T15:35:43.652Z,47.42
2019-05-11T15:38:15.024Z,47.38
2019-05-11T15:40:48.775Z,46.82
2019-05-11T15:43:18.759Z,47.09
2019-05-11T15:45:48.838Z,47.08
2019-05-11T15:48:18.990Z,46.55
2019-05-11T15:50:48.823Z,46.17
2019-05-11T15:53:18.719Z,46.16
2019-05-11T15:55:48.646Z,46.59
2019-05-11T15:58:21.471Z,47.60
2019-05-11T16:00:50.402Z,47.38
2019-05-11T16:03:20.112Z,46.35
2019-05-11T16:05:50.034Z,45.63
2019-05-11T16:08:19.688Z,45.77
2019-05-11T16:10:49.334Z,46.13
2019-05-11T16:13:19.045Z,46.24
2019-05-11T16:15:48.732Z,46.73
2019-05-11T16:18:19.010Z,45.82
2019-05-11T16:20:50.512Z,45.35
2019-05-11T16:23:20.466Z,44.66
2019-05-11T16:25:50.272Z,44.92
2019-05-11T16:28:20.079Z,44.53
2019-05-11T16:30:49.871Z,44.27
2019-05-11T16:33:19.564Z,44.41
2019-05-11T16:35:49.454Z,44.51
2019-05-11T16:38:19.221Z,44.63
2019-05-11T16:40:48.979Z,44.33
2019-05-11T16:43:19.389Z,44.07
2019-05-11T16:45:51.119Z,43.49
2019-05-11T16:48:20.780Z,43.57
2019-05-11T16:50:50.562Z,43.70
2019-05-11T16:53:20.278Z,42.44
2019-05-11T16:55:50.031Z,42.06
2019-05-11T16:58:20.188Z,41.71
2019-05-11T17:00:50.033Z,41.35
2019-05-11T17:03:19.975Z,41.39
2019-05-11T17:05:49.620Z,41.34
2019-05-11T17:08:19.482Z,41.84
2019-05-11T17:10:59.330Z,42.01
2019-05-11T17:13:29.279Z,41.14
2019-05-11T17:15:58.963Z,41.95
2019-05-11T17:18:28.812Z,42.29
2019-05-11T17:20:58.696Z,42.56
2019-05-11T17:23:30.993Z,41.57
2019-05-11T17:26:00.066Z,41.19
2019-05-11T17:28:29.923Z,41.40
2019-05-11T17:31:02.796Z,41.05
2019-05-11T17:33:31.331Z,41.46
2019-05-11T17:36:00.994Z,41.52
2019-05-11T17:38:30.682Z,41.34
2019-05-11T17:41:00.430Z,41.25
2019-05-11T17:43:30.123Z,41.52
2019-05-11T17:45:59.856Z,41.98
2019-05-11T17:48:29.888Z,42.74
2019-05-11T17:50:59.564Z,43.29
2019-05-11T17:53:29.400Z,43.52
2019-05-11T17:55:59.262Z,43.83
2019-05-11T17:58:29.183Z,44.29
2019-05-11T18:00:59.104Z,44.26
2019-05-11T18:03:28.832Z,43.95
2019-05-11T18:05:59.102Z,44.39
2019-05-11T18:08:30.851Z,44.15
2019-05-11T18:11:00.495Z,44.16
2019-05-11T18:13:30.213Z,44.07
2019-05-11T18:15:59.984Z,44.43
2019-05-11T18:18:29.926Z,44.80
2019-05-11T18:20:59.675Z,45.01
2019-05-11T18:23:29.462Z,45.25
2019-05-11T18:25:59.254Z,45.37
2019-05-11T18:28:29.382Z,45.64
2019-05-11T18:30:59.204Z,45.20
2019-05-11T18:33:28.989Z,44.73
2019-05-11T18:35:58.786Z,44.54
2019-05-11T18:38:28.572Z,44.72
2019-05-11T18:40:58.440Z,44.83
2019-05-11T18:43:28.311Z,45.14
2019-05-11T18:45:58.440Z,44.92
2019-05-11T18:48:29.363Z,45.04
2019-05-11T18:50:59.556Z,45.57
2019-05-11T18:53:29.296Z,45.45
2019-05-11T18:55:59.273Z,45.49
2019-05-11T18:58:29.110Z,45.56
2019-05-11T19:00:58.936Z,45.72
2019-05-11T19:03:28.647Z,45.93
2019-05-11T19:05:58.469Z,46.23
2019-05-11T19:08:28.230Z,46.50
2019-05-11T19:10:58.151Z,46.94
2019-05-11T19:13:28.387Z,46.82
2019-05-11T19:15:58.520Z,47.29
2019-05-11T19:18:28.410Z,47.54
2019-05-11T19:20:58.706Z,47.84
2019-05-11T19:23:28.961Z,48.34
2019-05-11T19:25:58.685Z,48.66
2019-05-11T19:28:28.431Z,49.03
2019-05-11T19:30:59.166Z,48.94
2019-05-11T19:33:29.044Z,49.35
2019-05-11T19:35:58.843Z,49.29
2019-05-11T19:38:28.546Z,49.50
2019-05-11T19:40:58.885Z,49.65
2019-05-11T19:43:28.933Z,49.35
2019-05-11T19:45:58.766Z,49.62
2019-05-11T19:48:28.697Z,50.08
2019-05-11T19:51:07.571Z,49.97
2019-05-11T19:53:30.267Z,50.08
2019-05-11T19:56:00.115Z,49.98
2019-05-11T19:58:29.893Z,49.98
2019-05-11T20:00:59.770Z,50.42
2019-05-11T20:03:29.576Z,50.61
2019-05-11T20:05:59.419Z,50.73
2019-05-11T20:08:29.263Z,50.76
2019-05-11T20:10:59.174Z,50.57
2019-05-11T20:13:28.814Z,51.08
2019-05-11T20:15:58.533Z,51.11
2019-05-11T20:18:28.867Z,51.21
2019-05-11T20:20:58.802Z,51.42
2019-05-11T20:23:28.533Z,51.31
2019-05-11T20:25:58.375Z,51.29
2019-05-11T20:28:28.623Z,51.36
2019-05-11T20:30:58.968Z,51.51
2019-05-11T20:33:28.814Z,51.37
2019-05-11T20:35:58.636Z,51.52
2019-05-11T20:38:28.304Z,51.72
2019-05-11T20:40:58.214Z,52.01
2019-05-11T20:43:28.144Z,51.68
2019-05-11T20:45:57.873Z,51.90
2019-05-11T20:48:27.936Z,51.85
2019-05-11T20:50:57.898Z,51.99
2019-05-11T20:53:28.678Z,52.51
2019-05-11T20:55:58.763Z,52.53
2019-05-11T20:58:30.103Z,52.66
2019-05-11T21:00:59.846Z,53.03
2019-05-11T21:03:29.634Z,53.21
2019-05-11T21:05:59.380Z,53.30
2019-05-11T21:08:29.097Z,53.42
2019-05-11T21:10:58.902Z,53.66
2019-05-11T21:13:28.589Z,53.86
2019-05-11T21:15:59.272Z,54.07
2019-05-11T21:18:29.068Z,54.17
2019-05-11T21:20:58.744Z,54.31
2019-05-11T21:23:28.960Z,54.48
2019-05-11T21:25:58.986Z,54.84
2019-05-11T21:28:30.717Z,54.89
2019-05-11T21:31:00.449Z,54.98
2019-05-11T21:33:30.294Z,55.20
2019-05-11T21:36:00.723Z,55.33
2019-05-11T21:38:31.834Z,55.61
2019-05-11T21:41:01.847Z,55.62
2019-05-11T21:43:31.507Z,56.09
2019-05-11T21:46:01.458Z,56.16
2019-05-11T21:48:31.190Z,56.42
2019-05-11T21:51:01.023Z,56.74
2019-05-11T21:53:30.675Z,56.84
2019-05-11T21:56:00.401Z,57.20
2019-05-11T21:58:30.308Z,57.19
2019-05-11T22:01:00.232Z,57.39
2019-05-11T22:03:30.032Z,57.59
2019-05-11T22:05:59.767Z,57.89
2019-05-11T22:08:29.597Z,57.83
2019-05-11T22:11:00.036Z,58.14
2019-05-11T22:13:30.047Z,58.18
2019-05-11T22:15:59.722Z,59.43
2019-05-11T22:18:31.415Z,58.30
2019-05-11T22:21:00.974Z,58.83
2019-05-11T22:23:30.678Z,59.05
2019-05-11T22:26:00.327Z,59.00
2019-05-11T22:28:30.136Z,59.00
2019-05-11T22:30:59.780Z,58.88
2019-05-11T22:33:29.549Z,58.98
2019-05-11T22:35:59.587Z,59.36
2019-05-11T22:38:30.293Z,59.30
2019-05-11T22:41:00.228Z,59.56
2019-05-11T22:43:29.974Z,59.82
2019-05-11T22:46:00.782Z,59.93
2019-05-11T22:48:30.493Z,60.08
2019-05-11T22:51:00.171Z,60.20
2019-05-11T22:53:43.890Z,60.13
2019-05-11T22:56:01.363Z,60.43
2019-05-11T22:58:31.088Z,60.65
2019-05-11T23:01:00.819Z,60.63
2019-05-11T23:03:30.520Z,60.94
2019-05-11T23:06:00.350Z,61.09
2019-05-11T23:08:30.090Z,61.27
2019-05-11T23:10:59.773Z,61.57
2019-05-11T23:13:29.520Z,61.56
2019-05-11T23:15:59.256Z,61.80
2019-05-11T23:18:28.931Z,61.71
2019-05-11T23:20:58.706Z,62.16
2019-05-11T23:23:28.473Z,62.52
2019-05-11T23:25:58.186Z,62.90
2019-05-11T23:28:28.814Z,62.88
2019-05-11T23:30:58.614Z,63.12
2019-05-11T23:33:28.438Z,63.06
2019-05-11T23:35:58.737Z,63.09
2019-05-11T23:38:28.711Z,63.05
2019-05-11T23:40:58.896Z,62.98
2019-05-11T23:43:30.058Z,63.21
2019-05-11T23:45:59.904Z,62.84
2019-05-11T23:48:29.618Z,63.17
2019-05-11T23:50:59.366Z,63.24
2019-05-11T23:53:29.164Z,63.24
2019-05-11T23:55:58.801Z,63.29
2019-05-11T23:58:28.652Z,63.44
